createdAt,value
2023-12-17T00:00:02.960Z,78.4
2023-12-17T00:01:04.159Z,78.4
2023-12-17T00:02:05.319Z,78.4
2023-12-17T00:03:21.618Z,78.4
2023-12-17T00:04:23.144Z,78.5
2023-12-17T00:05:24.344Z,78.5
2023-12-17T00:06:25.842Z,78.5
2023-12-17T00:07:27.115Z,78.5
2023-12-17T00:08:28.255Z,78.5
2023-12-17T00:09:29.418Z,78.5
2023-12-17T00:10:30.580Z,78.6
2023-12-17T00:11:31.754Z,78.6
2023-12-17T00:12:32.915Z,78.6
2023-12-17T00:13:34.079Z,78.6
2023-12-17T00:14:35.257Z,78.6
2023-12-17T00:15:36.410Z,78.6
2023-12-17T00:16:37.581Z,78.6
2023-12-17T00:17:39.604Z,78.6
2023-12-17T00:18:41.412Z,78.6
2023-12-17T00:19:42.929Z,78.7
2023-12-17T00:20:44.218Z,78.7
2023-12-17T00:21:45.444Z,78.7
2023-12-17T00:22:46.598Z,78.7
2023-12-17T00:23:47.982Z,78.8
2023-12-17T00:24:49.168Z,78.8
2023-12-17T00:25:50.957Z,78.8
2023-12-17T00:26:52.292Z,78.8
2023-12-17T00:27:53.441Z,78.8
2023-12-17T00:28:54.603Z,78.8
2023-12-17T00:29:55.803Z,78.8
2023-12-17T00:30:57.058Z,78.8
2023-12-17T00:32:02.192Z,78.8
2023-12-17T00:33:04.014Z,78.9
2023-12-17T00:34:05.790Z,78.9
2023-12-17T00:35:07.028Z,78.9
2023-12-17T00:36:08.399Z,78.9
2023-12-17T00:37:09.558Z,78.9
2023-12-17T00:38:10.720Z,78.9
2023-12-17T00:39:11.969Z,78.9
2023-12-17T00:40:13.147Z,78.9
2023-12-17T00:41:14.311Z,78.9
2023-12-17T00:42:15.574Z,78.9
2023-12-17T00:43:16.729Z,78.9
2023-12-17T00:44:17.915Z,78.9
2023-12-17T00:45:19.351Z,78.9
2023-12-17T00:46:20.527Z,78.9
2023-12-17T00:47:21.697Z,78.9
2023-12-17T00:48:23.509Z,79
2023-12-17T00:49:25.061Z,79
2023-12-17T00:50:26.284Z,79
2023-12-17T00:51:27.476Z,79
2023-12-17T00:52:28.643Z,79
2023-12-17T00:53:29.799Z,79
2023-12-17T00:54:30.979Z,79
2023-12-17T00:55:32.135Z,79
2023-12-17T00:56:33.302Z,79
2023-12-17T00:57:34.485Z,79.1
2023-12-17T00:58:35.642Z,79.1
2023-12-17T00:59:36.800Z,79.1
2023-12-17T01:00:56.491Z,79.1
2023-12-17T01:01:57.856Z,79.2
2023-12-17T01:02:59.385Z,79.2
2023-12-17T01:04:00.769Z,79.2
2023-12-17T01:05:02.012Z,79.3
2023-12-17T01:06:03.488Z,79.3
2023-12-17T01:07:04.662Z,79.3
2023-12-17T01:08:05.846Z,79.4
2023-12-17T01:09:07.150Z,79.4
2023-12-17T01:10:08.316Z,79.4
2023-12-17T01:11:09.469Z,79.4
2023-12-17T01:12:10.761Z,79.4
2023-12-17T01:13:11.937Z,79.4
2023-12-17T01:14:13.519Z,79.5
2023-12-17T01:15:15.015Z,79.5
2023-12-17T01:16:16.241Z,79.5
2023-12-17T01:17:17.427Z,79.5
2023-12-17T01:18:19.001Z,79.5
2023-12-17T01:19:20.673Z,79.6
2023-12-17T01:20:21.921Z,79.6
2023-12-17T01:21:23.168Z,79.6
2023-12-17T01:22:24.344Z,79.6
2023-12-17T01:23:25.532Z,79.6
2023-12-17T01:24:26.749Z,79.6
2023-12-17T01:25:27.931Z,79.6
2023-12-17T01:26:29.126Z,79.7
2023-12-17T01:27:30.289Z,79.7
2023-12-17T01:28:31.476Z,79.7
2023-12-17T01:29:32.626Z,79.7
2023-12-17T01:30:33.939Z,79.7
2023-12-17T01:31:35.108Z,79.7
2023-12-17T01:32:36.369Z,79.7
2023-12-17T01:33:37.907Z,79.7
2023-12-17T01:34:39.532Z,79.7
2023-12-17T01:35:40.839Z,79.7
2023-12-17T01:36:42.046Z,79.6
2023-12-17T01:37:43.734Z,79.6
2023-12-17T01:38:44.952Z,79.6
2023-12-17T01:39:46.129Z,79.6
2023-12-17T01:40:47.272Z,79.6
2023-12-17T01:41:48.522Z,79.6
2023-12-17T01:42:49.737Z,79.6
2023-12-17T01:43:50.909Z,79.6
2023-12-17T01:44:52.141Z,79.6
2023-12-17T01:45:53.276Z,79.5
2023-12-17T01:46:54.462Z,79.5
2023-12-17T01:47:56.041Z,79.5
2023-12-17T01:48:57.557Z,79.5
2023-12-17T01:49:58.811Z,79.5
2023-12-17T01:51:00.080Z,79.5
2023-12-17T01:52:01.255Z,79.5
2023-12-17T01:53:02.414Z,79.5
2023-12-17T01:54:03.617Z,79.5
2023-12-17T01:55:04.881Z,79.5
2023-12-17T01:56:06.024Z,79.5
2023-12-17T01:57:07.260Z,79.5
2023-12-17T01:58:08.437Z,79.5
2023-12-17T01:59:09.602Z,79.5
2023-12-17T02:00:10.952Z,79.5
2023-12-17T02:01:12.194Z,79.5
2023-12-17T02:02:13.398Z,79.5
2023-12-17T02:03:14.985Z,79.5
2023-12-17T02:04:16.300Z,79.5
2023-12-17T02:05:17.545Z,79.5
2023-12-17T02:06:18.984Z,79.5
2023-12-17T02:07:20.155Z,79.5
2023-12-17T02:08:21.296Z,79.5
2023-12-17T02:09:22.620Z,79.5
2023-12-17T02:10:23.805Z,79.5
2023-12-17T02:11:24.964Z,79.6
2023-12-17T02:12:26.244Z,79.6
2023-12-17T02:13:27.414Z,79.6
2023-12-17T02:14:28.595Z,79.6
2023-12-17T02:15:29.871Z,79.6
2023-12-17T02:16:31.057Z,79.6
2023-12-17T02:17:32.877Z,79.6
2023-12-17T02:18:34.501Z,79.6
2023-12-17T02:19:35.953Z,79.7
2023-12-17T02:20:37.122Z,79.7
2023-12-17T02:21:38.285Z,79.7
2023-12-17T02:22:39.593Z,79.7
2023-12-17T02:23:40.855Z,79.7
2023-12-17T02:24:42.016Z,79.7
2023-12-17T02:25:43.180Z,79.7
2023-12-17T02:26:44.678Z,79.7
2023-12-17T02:27:45.857Z,79.7
2023-12-17T02:28:47.021Z,79.8
2023-12-17T02:29:48.214Z,79.8
2023-12-17T02:30:49.474Z,79.8
2023-12-17T02:31:50.650Z,79.8
2023-12-17T02:32:52.031Z,79.8
2023-12-17T02:33:53.607Z,79.8
2023-12-17T02:34:54.914Z,79.8
2023-12-17T02:35:56.144Z,79.9
2023-12-17T02:36:57.294Z,79.9
2023-12-17T02:37:58.498Z,79.9
2023-12-17T02:38:59.742Z,79.9
2023-12-17T02:40:00.949Z,80
2023-12-17T02:41:02.109Z,80
2023-12-17T02:42:03.318Z,80
2023-12-17T02:43:04.485Z,80
2023-12-17T02:44:05.656Z,80.1
2023-12-17T02:45:07.048Z,80.1
2023-12-17T02:46:08.220Z,80.2
2023-12-17T02:47:09.372Z,80.2
2023-12-17T02:48:11.017Z,80.3
2023-12-17T02:49:12.391Z,80.3
2023-12-17T02:50:13.617Z,80.3
2023-12-17T02:51:14.841Z,80.4
2023-12-17T02:52:15.989Z,80.4
2023-12-17T02:53:17.179Z,80.4
2023-12-17T02:54:18.558Z,80.4
2023-12-17T02:55:19.766Z,80.5
2023-12-17T02:56:20.934Z,80.5
2023-12-17T02:57:22.317Z,80.6
2023-12-17T02:58:23.449Z,80.6
2023-12-17T02:59:24.642Z,80.6
2023-12-17T03:00:26.104Z,80.6
2023-12-17T03:01:27.543Z,80.6
2023-12-17T03:02:28.710Z,80.6
2023-12-17T03:03:30.209Z,80.6
2023-12-17T03:04:31.402Z,80.6
2023-12-17T03:05:32.707Z,80.6
2023-12-17T03:06:33.894Z,80.6
2023-12-17T03:07:35.097Z,80.7
2023-12-17T03:08:36.272Z,80.7
2023-12-17T03:09:37.471Z,80.7
2023-12-17T03:10:38.623Z,80.7
2023-12-17T03:11:39.804Z,80.7
2023-12-17T03:12:40.961Z,80.7
2023-12-17T03:13:42.122Z,80.8
2023-12-17T03:14:43.324Z,80.8
2023-12-17T03:15:44.499Z,80.8
2023-12-17T03:16:45.661Z,80.8
2023-12-17T03:17:47.137Z,80.8
2023-12-17T03:18:48.823Z,80.8
2023-12-17T03:19:50.673Z,80.9
2023-12-17T03:20:51.850Z,80.9
2023-12-17T03:21:53.022Z,81
2023-12-17T03:22:54.201Z,81
2023-12-17T03:23:55.469Z,81.1
2023-12-17T03:24:56.621Z,81.1
2023-12-17T03:25:57.793Z,81.2
2023-12-17T03:26:59.056Z,81.2
2023-12-17T03:28:00.227Z,81.2
2023-12-17T03:29:01.397Z,81.3
2023-12-17T03:30:02.751Z,81.3
2023-12-17T03:31:03.976Z,81.3
2023-12-17T03:32:05.362Z,81.3
2023-12-17T03:33:06.884Z,81.4
2023-12-17T03:34:08.401Z,81.4
2023-12-17T03:35:09.640Z,81.5
2023-12-17T03:36:11.285Z,81.5
2023-12-17T03:37:12.468Z,81.5
2023-12-17T03:38:13.663Z,81.6
2023-12-17T03:39:14.908Z,81.7
2023-12-17T03:40:16.049Z,81.7
2023-12-17T03:41:17.211Z,81.8
2023-12-17T03:42:18.444Z,81.8
2023-12-17T03:43:19.646Z,81.8
2023-12-17T03:44:20.775Z,81.9
2023-12-17T03:45:22.232Z,81.9
2023-12-17T03:46:23.448Z,81.9
2023-12-17T03:47:24.682Z,82
2023-12-17T03:48:26.367Z,82
2023-12-17T03:49:27.783Z,82
2023-12-17T03:50:28.980Z,82
2023-12-17T03:51:30.315Z,82.1
2023-12-17T03:52:31.465Z,82.1
2023-12-17T03:53:32.626Z,82.1
2023-12-17T03:54:33.821Z,82.1
2023-12-17T03:55:34.967Z,82.1
2023-12-17T03:56:36.131Z,82.1
2023-12-17T03:57:37.350Z,82.1
2023-12-17T03:58:38.530Z,82.1
2023-12-17T03:59:39.696Z,82.1
2023-12-17T04:00:40.938Z,82.1
2023-12-17T04:01:42.079Z,82.2
2023-12-17T04:02:43.445Z,82.2
2023-12-17T04:03:44.906Z,82.2
2023-12-17T04:04:46.173Z,82.2
2023-12-17T04:05:47.420Z,82.2
2023-12-17T04:06:48.687Z,82.2
2023-12-17T04:07:49.976Z,82.1
2023-12-17T04:08:56.265Z,82.1
2023-12-17T04:09:57.501Z,82.1
2023-12-17T04:10:58.623Z,82.1
2023-12-17T04:11:59.852Z,82.1
2023-12-17T04:13:01.005Z,82
2023-12-17T04:14:02.192Z,82.1
2023-12-17T04:15:03.394Z,82
2023-12-17T04:16:04.555Z,82
2023-12-17T04:17:05.719Z,82
2023-12-17T04:18:07.308Z,82
2023-12-17T04:19:08.815Z,82
2023-12-17T04:20:10.030Z,82
2023-12-17T04:21:11.338Z,82
2023-12-17T04:22:12.538Z,82
2023-12-17T04:23:13.700Z,82
2023-12-17T04:24:15.015Z,82
2023-12-17T04:25:16.227Z,82
2023-12-17T04:26:17.365Z,82
2023-12-17T04:27:18.610Z,82
2023-12-17T04:28:19.739Z,82.1
2023-12-17T04:29:20.917Z,82
2023-12-17T04:30:22.312Z,82
2023-12-17T04:31:23.596Z,82
2023-12-17T04:32:24.848Z,82
2023-12-17T04:33:26.416Z,82
2023-12-17T04:34:27.982Z,82
2023-12-17T04:35:29.134Z,82
2023-12-17T04:36:30.403Z,82
2023-12-17T04:37:31.562Z,82
2023-12-17T04:38:32.721Z,82
2023-12-17T04:39:33.902Z,82
2023-12-17T04:40:35.070Z,81.9
2023-12-17T04:41:36.210Z,81.9
2023-12-17T04:42:37.413Z,81.9
2023-12-17T04:43:38.560Z,81.9
2023-12-17T04:44:39.738Z,81.9
2023-12-17T04:45:40.898Z,81.9
2023-12-17T04:46:42.058Z,81.8
2023-12-17T04:47:44.661Z,81.8
2023-12-17T04:48:46.506Z,81.8
2023-12-17T04:49:47.784Z,81.8
2023-12-17T04:50:48.990Z,81.8
2023-12-17T04:51:50.155Z,81.7
2023-12-17T04:52:51.321Z,81.7
2023-12-17T04:53:52.553Z,81.7
2023-12-17T04:54:53.716Z,81.7
2023-12-17T04:55:54.917Z,81.6
2023-12-17T04:56:56.200Z,81.6
2023-12-17T04:57:57.430Z,81.6
2023-12-17T04:58:58.589Z,81.6
2023-12-17T04:59:59.849Z,81.5
2023-12-17T05:01:01.412Z,81.5
2023-12-17T05:02:02.562Z,81.5
2023-12-17T05:03:06.974Z,81.5
2023-12-17T05:04:10.282Z,81.5
2023-12-17T05:05:12.512Z,81.4
2023-12-17T05:06:14.056Z,81.4
2023-12-17T05:07:15.259Z,81.4
2023-12-17T05:08:16.490Z,81.4
2023-12-17T05:09:17.822Z,81.3
2023-12-17T05:10:18.966Z,81.3
2023-12-17T05:11:20.290Z,81.3
2023-12-17T05:12:21.723Z,81.2
2023-12-17T05:13:22.967Z,81.2
2023-12-17T05:14:24.120Z,81.1
2023-12-17T05:15:25.506Z,81.1
2023-12-17T05:16:26.670Z,81.1
2023-12-17T05:17:28.107Z,81
2023-12-17T05:18:29.609Z,81
2023-12-17T05:19:31.727Z,81
2023-12-17T05:20:33.012Z,81
2023-12-17T05:21:34.228Z,80.9
2023-12-17T05:22:35.395Z,80.9
2023-12-17T05:23:36.593Z,80.9
2023-12-17T05:24:37.728Z,80.9
2023-12-17T05:25:38.905Z,80.9
2023-12-17T05:26:40.090Z,80.9
2023-12-17T05:27:41.960Z,80.9
2023-12-17T05:28:43.187Z,80.9
2023-12-17T05:29:44.408Z,80.9
2023-12-17T05:30:48.395Z,80.8
2023-12-17T05:31:49.651Z,80.8
2023-12-17T05:32:51.287Z,80.8
2023-12-17T05:33:52.879Z,80.8
2023-12-17T05:34:54.075Z,80.8
2023-12-17T05:35:55.278Z,80.8
2023-12-17T05:36:56.461Z,80.8
2023-12-17T05:37:57.611Z,80.8
2023-12-17T05:38:58.844Z,80.8
2023-12-17T05:40:00.050Z,80.9
2023-12-17T05:41:01.229Z,80.9
2023-12-17T05:42:02.513Z,80.9
2023-12-17T05:43:03.675Z,80.9
2023-12-17T05:44:04.855Z,80.9
2023-12-17T05:45:06.106Z,81
2023-12-17T05:46:07.742Z,81
2023-12-17T05:47:08.894Z,81
2023-12-17T05:48:10.504Z,81
2023-12-17T05:49:12.316Z,81
2023-12-17T05:50:14.037Z,81.1
2023-12-17T05:51:15.329Z,81.1
2023-12-17T05:52:16.486Z,81.1
2023-12-17T05:53:17.652Z,81.1
2023-12-17T05:54:18.963Z,81.1
2023-12-17T05:55:20.135Z,81.1
2023-12-17T05:56:21.407Z,81.1
2023-12-17T05:57:22.690Z,81.2
2023-12-17T05:58:23.849Z,81.2
2023-12-17T05:59:25.009Z,81.2
2023-12-17T06:00:26.249Z,81.2
2023-12-17T06:01:27.534Z,81.2
2023-12-17T06:02:28.689Z,81.2
2023-12-17T06:03:30.125Z,81.3
2023-12-17T06:04:31.374Z,81.3
2023-12-17T06:05:32.594Z,81.3
2023-12-17T06:06:34.288Z,81.3
2023-12-17T06:07:35.610Z,81.4
2023-12-17T06:08:36.785Z,81.4
2023-12-17T06:09:38.063Z,81.4
2023-12-17T06:10:39.279Z,81.4
2023-12-17T06:11:40.444Z,81.4
2023-12-17T06:12:41.665Z,81.4
2023-12-17T06:13:42.906Z,81.4
2023-12-17T06:14:44.195Z,81.4
2023-12-17T06:15:45.327Z,81.4
2023-12-17T06:16:46.513Z,81.4
2023-12-17T06:17:47.907Z,81.4
2023-12-17T06:18:49.622Z,81.4
2023-12-17T06:19:50.947Z,81.4
2023-12-17T06:20:52.198Z,81.4
2023-12-17T06:21:53.373Z,81.4
2023-12-17T06:22:54.529Z,81.4
2023-12-17T06:23:55.768Z,81.4
2023-12-17T06:24:56.927Z,81.4
2023-12-17T06:25:58.111Z,81.3
2023-12-17T06:26:59.389Z,81.3
2023-12-17T06:28:00.543Z,81.3
2023-12-17T06:29:01.685Z,81.3
2023-12-17T06:30:02.982Z,81.3
2023-12-17T06:31:04.594Z,81.2
2023-12-17T06:32:08.819Z,81.2
2023-12-17T06:33:10.346Z,81.2
2023-12-17T06:34:11.755Z,81.2
2023-12-17T06:35:12.941Z,81.2
2023-12-17T06:36:14.182Z,81.2
2023-12-17T06:37:15.359Z,81.2
2023-12-17T06:38:16.535Z,81.2
2023-12-17T06:39:17.827Z,81.1
2023-12-17T06:40:18.998Z,81.1
2023-12-17T06:41:20.162Z,81.1
2023-12-17T06:42:21.469Z,81.1
2023-12-17T06:43:22.638Z,81.1
2023-12-17T06:44:23.774Z,81.1
2023-12-17T06:45:25.037Z,81.1
2023-12-17T06:46:26.191Z,81.1
2023-12-17T06:47:29.809Z,81.1
2023-12-17T06:48:31.300Z,81
2023-12-17T06:49:32.691Z,81
2023-12-17T06:50:33.895Z,81
2023-12-17T06:51:35.143Z,81
2023-12-17T06:52:36.309Z,80.9
2023-12-17T06:53:37.468Z,80.9
2023-12-17T06:54:38.721Z,80.9
2023-12-17T06:55:39.868Z,80.9
2023-12-17T06:56:41.035Z,80.8
2023-12-17T06:57:42.887Z,80.8
2023-12-17T06:58:44.374Z,80.8
2023-12-17T06:59:45.887Z,80.8
2023-12-17T07:00:47.239Z,80.8
2023-12-17T07:01:48.428Z,80.8
2023-12-17T07:02:49.817Z,80.7
2023-12-17T07:03:51.155Z,80.7
2023-12-17T07:04:52.312Z,80.7
2023-12-17T07:05:53.739Z,80.7
2023-12-17T07:06:54.933Z,80.7
2023-12-17T07:07:56.091Z,80.7
2023-12-17T07:08:57.322Z,80.7
2023-12-17T07:09:58.533Z,80.7
2023-12-17T07:10:59.675Z,80.7
2023-12-17T07:12:00.914Z,80.6
2023-12-17T07:13:02.088Z,80.6
2023-12-17T07:14:03.300Z,80.6
2023-12-17T07:15:04.549Z,80.6
2023-12-17T07:16:05.693Z,80.6
2023-12-17T07:17:07.141Z,80.6
2023-12-17T07:18:08.565Z,80.6
2023-12-17T07:19:10.604Z,80.5
2023-12-17T07:20:11.798Z,80.5
2023-12-17T07:21:13.071Z,80.5
2023-12-17T07:22:14.225Z,80.5
2023-12-17T07:23:15.397Z,80.5
2023-12-17T07:24:16.701Z,80.5
2023-12-17T07:25:17.842Z,80.5
2023-12-17T07:26:24.050Z,80.4
2023-12-17T07:27:25.354Z,80.4
2023-12-17T07:28:26.508Z,80.4
2023-12-17T07:29:27.686Z,80.4
2023-12-17T07:30:28.994Z,80.4
2023-12-17T07:31:30.354Z,80.4
2023-12-17T07:32:31.736Z,80.4
2023-12-17T07:33:33.190Z,80.4
2023-12-17T07:34:34.741Z,80.4
2023-12-17T07:35:35.937Z,80.4
2023-12-17T07:36:37.071Z,80.3
2023-12-17T07:37:38.942Z,80.3
2023-12-17T07:38:40.280Z,80.3
2023-12-17T07:39:41.652Z,80.3
2023-12-17T07:40:42.809Z,80.3
2023-12-17T07:41:43.966Z,80.2
2023-12-17T07:42:45.132Z,80.2
2023-12-17T07:43:46.351Z,80.2
2023-12-17T07:44:47.596Z,80.2
2023-12-17T07:45:48.754Z,80.1
2023-12-17T07:46:49.985Z,80.1
2023-12-17T07:47:52.522Z,80.1
2023-12-17T07:48:54.416Z,80.1
2023-12-17T07:49:55.669Z,80.1
2023-12-17T07:50:56.915Z,80
2023-12-17T07:51:58.056Z,80
2023-12-17T07:52:59.224Z,80
2023-12-17T07:54:00.558Z,80
2023-12-17T07:55:01.715Z,80
2023-12-17T07:56:02.879Z,80
2023-12-17T07:57:04.227Z,80
2023-12-17T07:58:05.385Z,80
2023-12-17T07:59:07.003Z,80
2023-12-17T08:00:08.481Z,80
2023-12-17T08:01:09.653Z,80
2023-12-17T08:02:10.812Z,79.9
2023-12-17T08:03:12.211Z,79.9
2023-12-17T08:04:13.805Z,79.9
2023-12-17T08:05:15.149Z,79.9
2023-12-17T08:06:16.673Z,79.9
2023-12-17T08:07:18.289Z,79.9
2023-12-17T08:08:19.437Z,79.9
2023-12-17T08:09:20.756Z,79.8
2023-12-17T08:10:22.023Z,79.8
2023-12-17T08:11:23.224Z,79.8
2023-12-17T08:12:24.439Z,79.8
2023-12-17T08:13:25.596Z,79.8
2023-12-17T08:14:26.774Z,79.7
2023-12-17T08:15:28.150Z,79.7
2023-12-17T08:16:29.319Z,79.7
2023-12-17T08:17:30.671Z,79.7
2023-12-17T08:18:31.997Z,79.7
2023-12-17T08:19:33.164Z,79.6
2023-12-17T08:20:34.332Z,79.6
2023-12-17T08:21:35.668Z,79.6
2023-12-17T08:22:36.830Z,79.6
2023-12-17T08:23:42.839Z,79.5
2023-12-17T08:24:44.000Z,79.5
2023-12-17T08:25:45.165Z,79.5
2023-12-17T08:26:46.381Z,79.4
2023-12-17T08:27:47.544Z,79.4
2023-12-17T08:28:48.701Z,79.3
2023-12-17T08:29:50.266Z,79.3
2023-12-17T08:30:52.056Z,79.2
2023-12-17T08:31:53.336Z,79.2
2023-12-17T08:32:54.752Z,79.2
2023-12-17T08:33:56.191Z,79.1
2023-12-17T08:34:57.386Z,79.1
2023-12-17T08:35:58.644Z,79
2023-12-17T08:36:59.790Z,79
2023-12-17T08:38:01.009Z,78.9
2023-12-17T08:39:02.224Z,78.9
2023-12-17T08:40:03.386Z,78.8
2023-12-17T08:41:04.557Z,78.7
2023-12-17T08:42:05.770Z,78.6
2023-12-17T08:43:06.948Z,78.6
2023-12-17T08:44:08.155Z,78.5
2023-12-17T08:45:09.433Z,78.5
2023-12-17T08:46:10.653Z,78.4
2023-12-17T08:47:11.796Z,78.4
2023-12-17T08:48:13.414Z,78.3
2023-12-17T08:49:17.781Z,78.3
2023-12-17T08:50:19.049Z,78.2
2023-12-17T08:51:20.380Z,78
2023-12-17T08:52:21.524Z,78
2023-12-17T08:53:22.702Z,77.9
2023-12-17T08:54:23.999Z,77.8
2023-12-17T08:55:25.146Z,77.7
2023-12-17T08:56:26.330Z,77.6
2023-12-17T08:57:27.571Z,77.5
2023-12-17T08:58:28.754Z,77.4
2023-12-17T08:59:29.930Z,77.3
2023-12-17T09:00:31.571Z,77.3
2023-12-17T09:01:32.838Z,77.2
2023-12-17T09:02:33.987Z,77.1
2023-12-17T09:03:35.437Z,77.1
2023-12-17T09:04:36.712Z,77.1
2023-12-17T09:05:37.868Z,77.1
2023-12-17T09:06:39.083Z,77.1
2023-12-17T09:07:41.120Z,77
2023-12-17T09:08:42.573Z,76.9
2023-12-17T09:09:43.726Z,76.7
2023-12-17T09:10:44.883Z,76.5
2023-12-17T09:11:46.082Z,76.3
2023-12-17T09:12:47.269Z,76
2023-12-17T09:13:50.781Z,75.6
2023-12-17T09:14:52.085Z,75.1
2023-12-17T09:15:53.312Z,74.7
2023-12-17T09:16:54.530Z,74.3
2023-12-17T09:17:56.338Z,74
2023-12-17T09:18:57.902Z,73.8
2023-12-17T09:19:59.210Z,73.4
2023-12-17T09:21:00.576Z,73
2023-12-17T09:22:01.756Z,72.7
2023-12-17T09:23:02.927Z,72.5
2023-12-17T09:24:04.137Z,72.1
2023-12-17T09:25:05.439Z,71.6
2023-12-17T09:26:06.599Z,71.1
2023-12-17T09:27:07.811Z,70.6
2023-12-17T09:28:10.073Z,70.1
2023-12-17T09:29:11.490Z,69.5
2023-12-17T09:30:13.012Z,68.9
2023-12-17T09:31:14.265Z,68.6
2023-12-17T09:32:15.433Z,68.2
2023-12-17T09:33:16.934Z,67.8
2023-12-17T09:34:18.776Z,67.4
2023-12-17T09:35:20.498Z,67.1
2023-12-17T09:36:21.792Z,66.7
2023-12-17T09:37:22.964Z,66.3
2023-12-17T09:38:24.129Z,65.9
2023-12-17T09:39:25.708Z,65.5
2023-12-17T09:40:26.917Z,65.1
2023-12-17T09:41:28.089Z,64.8
2023-12-17T09:42:29.538Z,64.6
2023-12-17T09:43:30.699Z,64.5
2023-12-17T09:44:31.864Z,64
2023-12-17T09:45:33.489Z,63.4
2023-12-17T09:46:34.655Z,63.1
2023-12-17T09:47:36.012Z,62.6
2023-12-17T09:48:39.124Z,62
2023-12-17T09:49:41.375Z,61.5
2023-12-17T09:50:42.540Z,61.2
2023-12-17T09:51:43.709Z,60.9
2023-12-17T09:52:44.876Z,60.7
2023-12-17T09:53:46.045Z,60.3
2023-12-17T09:54:47.441Z,59.8
2023-12-17T09:55:48.606Z,59.3
2023-12-17T09:56:50.349Z,59
2023-12-17T09:57:51.532Z,58.6
2023-12-17T09:58:52.689Z,58.2
2023-12-17T09:59:53.895Z,57.9
2023-12-17T10:00:55.811Z,57.5
2023-12-17T10:01:59.954Z,57.2
2023-12-17T10:03:01.352Z,56.7
2023-12-17T10:04:02.792Z,56.4
2023-12-17T10:05:04.079Z,56
2023-12-17T10:06:05.440Z,55.7
2023-12-17T10:07:06.643Z,55.4
2023-12-17T10:08:08.624Z,55.1
2023-12-17T10:09:09.920Z,55
2023-12-17T10:10:11.098Z,54.8
2023-12-17T10:11:12.363Z,54.5
2023-12-17T10:12:13.578Z,54.4
2023-12-17T10:13:14.767Z,54.2
2023-12-17T10:14:15.941Z,54
2023-12-17T10:15:17.208Z,53.8
2023-12-17T10:16:18.416Z,53.6
2023-12-17T10:17:19.616Z,53.4
2023-12-17T10:18:21.542Z,53.4
2023-12-17T10:19:28.917Z,53.3
2023-12-17T10:20:30.749Z,53.1
2023-12-17T10:21:32.152Z,53
2023-12-17T10:22:33.348Z,52.9
2023-12-17T10:23:34.510Z,52.8
2023-12-17T10:24:35.753Z,52.8
2023-12-17T10:25:36.917Z,52.8
2023-12-17T10:26:38.082Z,52.7
2023-12-17T10:27:40.305Z,52.6
2023-12-17T10:28:41.574Z,52.6
2023-12-17T10:29:42.738Z,52.5
2023-12-17T10:30:45.037Z,52.5
2023-12-17T10:31:46.364Z,52.3
2023-12-17T10:32:47.757Z,52.3
2023-12-17T10:33:49.705Z,52.4
2023-12-17T10:34:51.827Z,52.7
2023-12-17T10:35:53.406Z,52.8
2023-12-17T10:36:54.546Z,52.8
2023-12-17T10:37:55.716Z,52.7
2023-12-17T10:38:56.956Z,52.5
2023-12-17T10:39:58.110Z,52.4
2023-12-17T10:40:59.273Z,52.1
2023-12-17T10:42:00.538Z,51.9
2023-12-17T10:43:01.683Z,51.9
2023-12-17T10:44:02.852Z,51.8
2023-12-17T10:45:04.054Z,51.6
2023-12-17T10:46:05.200Z,51.4
2023-12-17T10:47:06.365Z,51.4
2023-12-17T10:48:08.090Z,51.1
2023-12-17T10:49:09.763Z,50.9
2023-12-17T10:50:10.986Z,50.8
2023-12-17T10:51:12.435Z,50.6
2023-12-17T10:52:13.606Z,50.7
2023-12-17T10:53:14.762Z,50.7
2023-12-17T10:54:15.986Z,50.4
2023-12-17T10:55:17.555Z,50.3
2023-12-17T10:56:18.720Z,50.3
2023-12-17T10:57:19.957Z,50.1
2023-12-17T10:58:21.184Z,49.8
2023-12-17T10:59:41.615Z,49.5
2023-12-17T11:00:43.064Z,49.4
2023-12-17T11:01:44.266Z,49.3
2023-12-17T11:02:45.462Z,49.3
2023-12-17T11:03:46.854Z,49.3
2023-12-17T11:04:48.092Z,49.1
2023-12-17T11:05:49.462Z,49
2023-12-17T11:06:50.834Z,48.8
2023-12-17T11:07:51.990Z,48.6
2023-12-17T11:08:53.168Z,48.6
2023-12-17T11:09:54.345Z,48.5
2023-12-17T11:10:55.532Z,48.4
2023-12-17T11:11:56.723Z,48.4
2023-12-17T11:12:57.879Z,48.4
2023-12-17T11:13:59.139Z,48.3
2023-12-17T11:15:00.484Z,48
2023-12-17T11:16:01.710Z,47.9
2023-12-17T11:17:02.874Z,47.8
2023-12-17T11:18:04.428Z,47.7
2023-12-17T11:19:05.967Z,47.6
2023-12-17T11:20:07.381Z,47.6
2023-12-17T11:21:08.989Z,47.6
2023-12-17T11:22:10.157Z,47.5
2023-12-17T11:23:11.317Z,47.4
2023-12-17T11:24:12.582Z,47.4
2023-12-17T11:25:13.852Z,47.3
2023-12-17T11:26:15.014Z,47.2
2023-12-17T11:27:16.270Z,47.1
2023-12-17T11:28:17.593Z,47
2023-12-17T11:29:18.750Z,46.8
2023-12-17T11:30:20.122Z,46.7
2023-12-17T11:31:21.374Z,46.6
2023-12-17T11:32:22.604Z,46.4
2023-12-17T11:33:24.266Z,46.2
2023-12-17T11:34:25.625Z,46
2023-12-17T11:35:26.851Z,45.9
2023-12-17T11:36:28.080Z,45.8
2023-12-17T11:37:29.248Z,45.6
2023-12-17T11:38:30.418Z,45.5
2023-12-17T11:39:31.780Z,45.4
2023-12-17T11:40:32.970Z,45.4
2023-12-17T11:41:34.137Z,45.4
2023-12-17T11:42:35.599Z,45.4
2023-12-17T11:43:36.821Z,45.4
2023-12-17T11:44:37.968Z,45.3
2023-12-17T11:45:42.329Z,45.3
2023-12-17T11:46:43.620Z,45.2
2023-12-17T11:47:44.957Z,45.1
2023-12-17T11:48:46.550Z,45.1
2023-12-17T11:49:47.962Z,44.9
2023-12-17T11:50:49.301Z,44.9
2023-12-17T11:51:50.443Z,44.8
2023-12-17T11:52:51.607Z,44.7
2023-12-17T11:53:52.795Z,44.6
2023-12-17T11:54:53.969Z,44.4
2023-12-17T11:55:55.134Z,44.3
2023-12-17T11:56:56.427Z,44.2
2023-12-17T11:57:57.634Z,44.1
2023-12-17T11:58:58.809Z,44
2023-12-17T12:00:00.251Z,43.8
2023-12-17T12:01:01.841Z,43.8
2023-12-17T12:02:03.097Z,43.7
2023-12-17T12:03:04.478Z,43.7
2023-12-17T12:04:06.051Z,43.6
2023-12-17T12:05:07.755Z,43.6
2023-12-17T12:06:09.480Z,43.5
2023-12-17T12:07:10.736Z,43.4
2023-12-17T12:08:12.266Z,43.3
2023-12-17T12:09:13.484Z,43.2
2023-12-17T12:10:14.644Z,43.2
2023-12-17T12:11:15.818Z,43.1
2023-12-17T12:12:17.092Z,42.9
2023-12-17T12:13:18.284Z,42.7
2023-12-17T12:14:19.462Z,42.6
2023-12-17T12:15:20.668Z,42.5
2023-12-17T12:16:22.649Z,42.3
2023-12-17T12:17:24.755Z,42.1
2023-12-17T12:18:26.223Z,42
2023-12-17T12:19:33.318Z,41.8
2023-12-17T12:20:34.498Z,41.6
2023-12-17T12:21:36.007Z,41.6
2023-12-17T12:22:37.176Z,41.5
2023-12-17T12:23:38.339Z,41.4
2023-12-17T12:24:39.782Z,41.3
2023-12-17T12:25:41.007Z,41
2023-12-17T12:26:42.176Z,40.9
2023-12-17T12:27:43.830Z,40.8
2023-12-17T12:28:45.073Z,40.6
2023-12-17T12:29:46.240Z,40.4
2023-12-17T12:30:47.552Z,40.3
2023-12-17T12:31:48.772Z,40.2
2023-12-17T12:32:50.162Z,40
2023-12-17T12:33:51.651Z,40
2023-12-17T12:34:53.156Z,39.9
2023-12-17T12:35:54.470Z,39.7
2023-12-17T12:36:55.647Z,39.5
2023-12-17T12:37:56.783Z,39.4
2023-12-17T12:38:57.983Z,39.3
2023-12-17T12:40:07.960Z,39.2
2023-12-17T12:41:10.952Z,39.1
2023-12-17T12:42:12.224Z,38.9
2023-12-17T12:43:13.366Z,38.9
2023-12-17T12:44:14.550Z,38.7
2023-12-17T12:45:15.914Z,38.6
2023-12-17T12:46:17.277Z,38.4
2023-12-17T12:47:18.680Z,38.4
2023-12-17T12:48:20.790Z,38.4
2023-12-17T12:49:22.403Z,38.3
2023-12-17T12:50:23.593Z,38.2
2023-12-17T12:51:24.891Z,38.5
2023-12-17T12:52:26.087Z,38.2
2023-12-17T12:53:28.159Z,37.6
2023-12-17T12:54:29.503Z,37.1
2023-12-17T12:55:30.704Z,36.6
2023-12-17T12:56:31.871Z,36.1
2023-12-17T12:57:35.544Z,35.5
2023-12-17T12:58:36.720Z,35
2023-12-17T12:59:37.885Z,34.6
2023-12-17T13:00:39.369Z,34.3
2023-12-17T13:01:40.559Z,34
2023-12-17T13:02:41.797Z,33.9
2023-12-17T13:03:43.200Z,33.3
2023-12-17T13:04:44.405Z,32.8
2023-12-17T13:05:45.793Z,32.7
2023-12-17T13:06:47.565Z,32
2023-12-17T13:07:48.775Z,31.5
2023-12-17T13:08:50.021Z,31.1
2023-12-17T13:10:11.694Z,30.7
2023-12-17T13:11:13.227Z,30.3
2023-12-17T13:12:14.492Z,29.8
2023-12-17T13:13:15.660Z,29.3
2023-12-17T13:14:16.829Z,29.2
2023-12-17T13:15:18.535Z,28.9
2023-12-17T13:16:19.743Z,28.8
2023-12-17T13:17:20.951Z,28.7
2023-12-17T13:18:22.655Z,28.8
2023-12-17T13:19:25.648Z,28.4
2023-12-17T13:20:27.295Z,28.2
2023-12-17T13:21:28.487Z,28.4
2023-12-17T13:22:29.668Z,28.2
2023-12-17T13:23:30.869Z,28.1
2023-12-17T13:24:33.413Z,28
2023-12-17T13:25:34.572Z,28
2023-12-17T13:26:35.752Z,28
2023-12-17T13:27:37.236Z,27.9
2023-12-17T13:28:38.419Z,27.7
2023-12-17T13:29:39.580Z,27.6
2023-12-17T13:30:41.005Z,27.5
2023-12-17T13:31:42.237Z,27.4
2023-12-17T13:32:44.040Z,27.4
2023-12-17T13:33:45.593Z,27.3
2023-12-17T13:34:46.894Z,26.9
2023-12-17T13:35:48.079Z,26.7
2023-12-17T13:36:49.533Z,26.7
2023-12-17T13:37:50.711Z,26.5
2023-12-17T13:38:51.967Z,26.3
2023-12-17T13:39:53.126Z,26.5
2023-12-17T13:40:54.296Z,27
2023-12-17T13:42:03.148Z,27
2023-12-17T13:43:04.327Z,27.1
2023-12-17T13:44:05.486Z,27.1
2023-12-17T13:45:06.698Z,27.2